Map

Track Data

SID SEASON NUMBER BASIN SUBBASIN NAME ISO_TIME NATURE LAT LON WMO_WIND WMO_PRES WMO_AGENCY TRACK_TYPE DIST2LAND LANDFALL IFLAG USA_AGENCY USA_ATCF_ID USA_LAT USA_LON USA_RECORD USA_STATUS USA_WIND USA_PRES USA_SSHS USA_R34_NE USA_R34_SE USA_R34_SW USA_R34_NW USA_R50_NE USA_R50_SE USA_R50_SW USA_R50_NW USA_R64_NE USA_R64_SE USA_R64_SW USA_R64_NW USA_POCI USA_ROCI USA_RMW USA_EYE TOKYO_LAT TOKYO_LON TOKYO_GRADE TOKYO_WIND TOKYO_PRES TOKYO_R50_DIR TOKYO_R50_LONG TOKYO_R50_SHORT TOKYO_R30_DIR TOKYO_R30_LONG TOKYO_R30_SHORT TOKYO_LAND CMA_LAT CMA_LON CMA_CAT CMA_WIND CMA_PRES HKO_LAT HKO_LON HKO_CAT HKO_WIND HKO_PRES NEWDELHI_LAT NEWDELHI_LON NEWDELHI_GRADE NEWDELHI_WIND NEWDELHI_PRES NEWDELHI_CI NEWDELHI_DP NEWDELHI_POCI REUNION_LAT REUNION_LON REUNION_TYPE REUNION_WIND REUNION_PRES REUNION_TNUM REUNION_CI REUNION_RMW REUNION_R34_NE REUNION_R34_SE REUNION_R34_SW REUNION_R34_NW REUNION_R50_NE REUNION_R50_SE REUNION_R50_SW REUNION_R50_NW REUNION_R64_NE REUNION_R64_SE REUNION_R64_SW REUNION_R64_NW BOM_LAT BOM_LON BOM_TYPE BOM_WIND BOM_PRES BOM_TNUM BOM_CI BOM_RMW BOM_R34_NE BOM_R34_SE BOM_R34_SW BOM_R34_NW BOM_R50_NE BOM_R50_SE BOM_R50_SW BOM_R50_NW BOM_R64_NE BOM_R64_SE BOM_R64_SW BOM_R64_NW BOM_ROCI BOM_POCI BOM_EYE BOM_POS_METHOD BOM_PRES_METHOD NADI_LAT NADI_LON NADI_CAT NADI_WIND NADI_PRES WELLINGTON_LAT WELLINGTON_LON WELLINGTON_WIND WELLINGTON_PRES DS824_LAT DS824_LON DS824_STAGE DS824_WIND DS824_PRES TD9636_LAT TD9636_LON TD9636_STAGE TD9636_WIND TD9636_PRES TD9635_LAT TD9635_LON TD9635_WIND TD9635_PRES TD9635_ROCI NEUMANN_LAT NEUMANN_LON NEUMANN_CLASS NEUMANN_WIND NEUMANN_PRES MLC_LAT MLC_LON MLC_CLASS MLC_WIND MLC_PRES USA_GUST BOM_GUST BOM_GUST_PER REUNION_GUST REUNION_GUST_PER USA_SEAHGT USA_SEARAD_NE USA_SEARAD_SE USA_SEARAD_SW USA_SEARAD_NW STORM_SPEED STORM_DIR
1967154N07154 1967 33 WP MM NOT_NAMED 1967-06-02 12:00:00 TS 6.80000 153.600 main 1106 1100 __O___________ -1 6.80000 153.600 0 1006 12 286
1967154N07154 1967 33 WP MM NOT_NAMED 1967-06-02 15:00:00 TS 6.96003 153.030 main 1111 1105 __P___________ -1 6.96003 153.030 0 1006 12 284
1967154N07154 1967 33 WP MM NOT_NAMED 1967-06-02 18:00:00 TS 7.10000 152.400 main 1110 1106 __O___________ -1 7.10000 152.400 0 1006 14 281
1967154N07154 1967 33 WP MM NOT_NAMED 1967-06-02 21:00:00 TS 7.20758 151.685 main 1112 1110 __P___________ -1 7.20758 151.685 0 1006 14 278
1967154N07154 1967 33 WP MM NOT_NAMED 1967-06-03 00:00:00 TS 7.30000 151.000 main 1120 1115 __O___________ -1 7.30000 151.000 0 1006 12 279
1967154N07154 1967 33 WP MM NOT_NAMED 1967-06-03 03:00:00 TS 7.39237 150.455 main 1118 1109 __P___________ -1 7.39237 150.455 0 1006 10 281
1967154N07154 1967 33 WP MM NOT_NAMED 1967-06-03 06:00:00 TS 7.50000 150.000 main 1113 1111 __O___________ -1 7.50000 150.000 0 1006 9 286
1967154N07154 1967 33 WP MM NOT_NAMED 1967-06-03 09:00:00 TS 7.64240 149.592 main 1114 1114 __P___________ -1 7.64240 149.592 0 1006 8 291
1967154N07154 1967 33 WP MM NOT_NAMED 1967-06-03 12:00:00 TS 7.80000 149.200 main 1127 1125 __O___________ -1 7.80000 149.200 0 1006 9 290
1967154N07154 1967 33 WP MM NOT_NAMED 1967-06-03 15:00:00 TS 7.95002 148.742 main 1140 1138 __P___________ -1 7.95002 148.742 0 1006 9 289
1967154N07154 1967 33 WP MM NOT_NAMED 1967-06-03 18:00:00 TS 8.10000 148.300 main 1147 1146 __O___________ -1 8.10000 148.300 0 1006 8 290
1967154N07154 1967 33 WP MM NOT_NAMED 1967-06-03 21:00:00 TS 8.24238 147.950 main 1155 1155 __P___________ -1 8.24238 147.950 0 1005 8 293
1967154N07154 1967 33 WP MM NOT_NAMED 1967-06-04 00:00:00 TS 8.40000 147.600 main 1176 1176 __O___________ -1 8.40000 147.600 0 1004 8 294
1967154N07154 1967 33 WP MM NOT_NAMED 1967-06-04 03:00:00 TS 8.58497 147.172 main 1199 1199 __P___________ -1 8.58497 147.172 0 1004 10 294
1967154N07154 1967 33 WP MM NOT_NAMED 1967-06-04 06:00:00 TS 8.80000 146.700 main 1221 1221 __O___________ -1 8.80000 146.700 0 1004 11 296
1967154N07154 1967 33 WP MM NOT_NAMED 1967-06-04 09:00:00 TS 9.04996 146.208 main 1244 1244 __P___________ -1 9.04996 146.208 0 1004 11 297
1967154N07154 1967 33 WP MM NOT_NAMED 1967-06-04 12:00:00 TS 9.30000 145.700 main 1281 1281 __O___________ -1 9.30000 145.700 0 1004 11 294
1967154N07154 1967 33 WP MM NOT_NAMED 1967-06-04 15:00:00 TS 9.48493 145.200 main 1309 1309 __P___________ -1 9.48493 145.200 0 1004 11 292
1967154N07154 1967 33 WP MM NOT_NAMED 1967-06-04 18:00:00 TS 9.70000 144.700 main 1338 1338 __O___________ -1 9.70000 144.700 0 1004 12 299
1967154N07154 1967 33 WP MM NOT_NAMED 1967-06-04 21:00:00 TS 10.0425 144.178 main 1381 1381 __P___________ -1 10.0425 144.178 0 1004 12 305
1967154N07154 1967 33 WP MM NOT_NAMED 1967-06-05 00:00:00 TS 10.4000 143.700 main 1437 1437 __O___________ -1 10.4000 143.700 0 1004 11 306
1967154N07154 1967 33 WP MM NOT_NAMED 1967-06-05 03:00:00 TS 10.6649 143.320 main 1480 1480 __P___________ -1 10.6649 143.320 0 1003 9 306
1967154N07154 1967 33 WP MM NOT_NAMED 1967-06-05 06:00:00 TS 10.9000 143.000 main 1498 1494 __O___________ -1 10.9000 143.000 0 1002 8 309
1967154N07154 1967 33 WP MM NOT_NAMED 1967-06-05 09:00:00 TS 11.1574 142.700 main 1518 1514 __P___________ -1 11.1574 142.700 0 1002 8 310
1967154N07154 1967 33 WP MM NOT_NAMED 1967-06-05 12:00:00 TS 11.4000 142.400 main 1528 1525 __O___________ -1 11.4000 142.400 0 1002 8 305
1967154N07154 1967 33 WP MM NOT_NAMED 1967-06-05 15:00:00 TS 11.5925 142.057 main 1540 1537 __P___________ -1 11.5925 142.057 0 1003 8 300
1967154N07154 1967 33 WP MM NOT_NAMED 1967-06-05 18:00:00 TS 11.8000 141.700 main 1550 1546 __O___________ -1 11.8000 141.700 0 1005 9 306
1967154N07154 1967 33 WP MM NOT_NAMED 1967-06-05 21:00:00 TS 12.1000 141.350 main 1567 1563 __P___________ -1 12.1000 141.350 0 1005 9 311
1967154N07154 1967 33 WP MM NOT_NAMED 1967-06-06 00:00:00 TS 12.4000 141.000 main 1582 1578 __O___________ -1 12.4000 141.000 0 1005 9 306
1967154N07154 1967 33 WP MM NOT_NAMED 1967-06-06 03:00:00 TS 12.6000 140.650 main 1588 1588 __P___________ -1 12.6000 140.650 0 1004 8 300
1967154N07154 1967 33 WP MM NOT_NAMED 1967-06-06 06:00:00 TS 12.8000 140.300 main 1591 1561 __O___________ -1 12.8000 140.300 0 1004 9 306
1967154N07154 1967 33 WP MM NOT_NAMED 1967-06-06 09:00:00 TS 13.1000 139.935 main 1551 1524 __P___________ -1 13.1000 139.935 0 1004 9 311
1967154N07154 1967 33 WP MM NOT_NAMED 1967-06-06 12:00:00 TS 13.4000 139.600 main 1524 1504 __O___________ -1 13.4000 139.600 1 29 1004 8 311
1967154N07154 1967 33 WP MM NOT_NAMED 1967-06-06 15:00:00 TS 13.6074 139.342 main 1495 1478 __P___________ -1 13.6074 139.342 1 29 1004 6 309
1967154N07154 1967 33 WP MM NOT_NAMED 1967-06-06 18:00:00 TS 13.8000 139.100 main 1478 1451 __O___________ -1 13.8000 139.100 1 29 1004 7 311
1967154N07154 1967 33 WP MM NOT_NAMED 1967-06-06 21:00:00 TS 14.0349 138.830 main 1451 1427 __P___________ -1 14.0349 138.830 1 29 1003 8 311
1967154N07154 1967 33 WP MM NOT_NAMED 1967-06-07 00:00:00 TS 14.3000 138.500 main 1427 1387 __O___________ -1 14.3000 138.500 1 29 1002 9 307
1967154N07154 1967 33 WP MM NOT_NAMED 1967-06-07 03:00:00 TS 14.5774 138.087 main 1389 1342 __P___________ -1 14.5774 138.087 1 29 1002 11 305
1967154N07154 1967 33 WP MM NOT_NAMED 1967-06-07 06:00:00 TS 14.9000 137.600 main 1342 1297 __O___________ -1 14.9000 137.600 1 29 1002 12 306
1967154N07154 1967 33 WP MM NOT_NAMED 1967-06-07 09:00:00 TS 15.2925 137.065 main 1300 1250 __P___________ -1 15.2925 137.065 1 29 1002 13 307
1967154N07154 1967 33 WP MM NOT_NAMED 1967-06-07 12:00:00 TS 15.7000 136.500 main 1250 1209 __O___________ -1 15.7000 136.500 1 29 1002 13 306
1967154N07154 1967 33 WP MM NOT_NAMED 1967-06-07 15:00:00 TS 16.0649 135.942 main 1203 1165 __P___________ -1 16.0649 135.942 1 29 1002 13 304
1967154N07154 1967 33 WP MM NOT_NAMED 1967-06-07 18:00:00 TS 16.4000 135.400 main 1165 1135 __O___________ -1 16.4000 135.400 1 29 1002 11 304
1967154N07154 1967 33 WP MM NOT_NAMED 1967-06-07 21:00:00 TS 16.6762 134.996 main 1140 1098 __P___________ -1 16.6762 134.996 1 29 1002 11 302
1967154N07154 1967 33 WP MM NOT_NAMED 1967-06-08 00:00:00 TS 17.0000 134.400 main 1098 1029 __O___________ -1 17.0000 134.400 1 29 1002 18 296
1967154N07154 1967 33 WP MM NOT_NAMED 1967-06-08 03:00:00 TS 17.4604 133.345 main 1027 942 __P___________ -1 17.4604 133.345 1 1002 25 294
1967154N07154 1967 33 WP MM NOT_NAMED 1967-06-08 06:00:00 TS 18.0000 132.000 main 933 __O___________ -1 18.0000 132.000 0 1003 28 293

Digital Typhoon Data and Search

About IBTrACS Database

This database is a web-friendly format of International Best Track Archive for Climate Stewardship (IBTrACS), a global best track data archive curated by NOAA dating back to 1842.

Updated: 2021-12-06